Time;durP1;ratioP1;P1;durP2;ratioP2;P2;SDS_P1;SDS_P2;PMS_P1;PMS_P2;Temp;Humidity;BMP_temperature;BMP_pressure;BME280_temperature;BME280_humidity;BME280_pressure;Samples;Min_cycle;Max_cycle;Signal;HPM_P1;HPM_P2
2021/11/03 00:00:26;;;;;;;35.55;5.47;;;;;;;;;;5074473;28;20426;-59
2021/11/03 00:02:54;;;;;;;44.83;5.72;;;;;;;;;;5073742;28;20082;-59
2021/11/03 00:05:21;;;;;;;37.28;5.03;;;;;;;;;;5069317;28;20380;-60
2021/11/03 00:07:48;;;;;;;31.92;4.90;;;;;;;;;;5074523;28;20492;-56
2021/11/03 00:10:16;;;;;;;33.30;5.85;;;;;;;;;;5074638;28;20028;-57
2021/11/03 00:12:43;;;;;;;31.50;5.25;;;;;;;;;;5076012;28;20027;-48
2021/11/03 00:15:11;;;;;;;25.67;5.13;;;;;;;;;;5073565;28;20035;-51
2021/11/03 00:17:38;;;;;;;43.08;5.68;;;;;;;;;;5072508;28;20111;-53
2021/11/03 00:20:07;;;;;;;39.90;5.60;;;;;;;;;;5059178;28;20506;-46
2021/11/03 00:22:34;;;;;;;29.08;5.68;;;;;;;;;;5075449;28;20025;-50
2021/11/03 00:25:01;;;;;;;34.90;5.43;;;;;;;;;;5054515;28;20017;-52
2021/11/03 00:27:28;;;;;;;25.58;4.63;;;;;;;;;;5071325;28;20461;-54
2021/11/03 00:29:55;;;;;;;26.52;4.43;;;;;;;;;;5073009;28;20504;-53
2021/11/03 00:32:22;;;;;;;36.53;5.05;;;;;;;;;;5072648;28;20030;-49
2021/11/03 00:34:49;;;;;;;20.73;4.32;;;;;;;;;;5054503;28;20679;-53
2021/11/03 00:37:16;;;;;;;25.15;3.70;;;;;;;;;;5072599;28;20015;-53
2021/11/03 00:39:43;;;;;;;27.45;4.55;;;;;;;;;;5073249;28;20016;-50
2021/11/03 00:42:11;;;;;;;24.83;4.43;;;;;;;;;;5072858;28;20021;-51
2021/11/03 00:44:38;;;;;;;23.10;4.25;;;;;;;;;;5072836;28;20388;-50
2021/11/03 00:47:05;;;;;;;24.50;3.63;;;;;;;;;;5072965;28;20131;-49
2021/11/03 00:49:32;;;;;;;30.73;4.32;;;;;;;;;;5072987;28;20040;-47
2021/11/03 00:51:59;;;;;;;15.52;3.85;;;;;;;;;;5070881;28;20032;-47
2021/11/03 00:54:27;;;;;;;21.65;3.55;;;;;;;;;;5071481;28;20013;-49
2021/11/03 00:56:54;;;;;;;19.17;3.42;;;;;;;;;;5081334;28;20029;-49
2021/11/03 00:59:21;;;;;;;21.25;4.80;;;;;;;;;;5072784;28;20048;-45
2021/11/03 01:01:48;;;;;;;13.82;3.50;;;;;;;;;;5072593;28;20491;-47
2021/11/03 01:04:16;;;;;;;16.77;2.90;;;;;;;;;;5072819;28;20032;-49
2021/11/03 01:06:43;;;;;;;10.88;2.88;;;;;;;;;;5073003;28;20029;-46
2021/11/03 01:09:10;;;;;;;12.52;3.00;;;;;;;;;;5075755;28;20099;-48
2021/11/03 01:11:38;;;;;;;12.52;2.65;;;;;;;;;;5073224;28;20025;-45
2021/11/03 01:14:05;;;;;;;20.73;3.75;;;;;;;;;;5075497;28;20112;-45
2021/11/03 01:16:33;;;;;;;21.63;4.13;;;;;;;;;;5072291;28;20028;-46
2021/11/03 01:19:00;;;;;;;17.63;4.35;;;;;;;;;;5073603;28;20596;-49
2021/11/03 01:21:27;;;;;;;28.40;5.85;;;;;;;;;;5073921;28;20095;-46
2021/11/03 01:23:54;;;;;;;41.53;9.02;;;;;;;;;;5077882;28;20056;-47
2021/11/03 01:26:21;;;;;;;39.00;9.75;;;;;;;;;;5078884;28;20055;-47
2021/11/03 01:28:48;;;;;;;46.63;11.68;;;;;;;;;;5078128;28;20020;-49
2021/11/03 01:31:15;;;;;;;44.17;11.18;;;;;;;;;;5078862;28;20621;-47
2021/11/03 01:33:42;;;;;;;42.30;11.55;;;;;;;;;;5074472;28;20074;-46
2021/11/03 01:36:10;;;;;;;46.05;11.52;;;;;;;;;;5086057;28;20038;-55
2021/11/03 01:38:37;;;;;;;48.90;12.30;;;;;;;;;;5080586;28;20029;-47
2021/11/03 01:41:05;;;;;;;39.60;10.73;;;;;;;;;;5073444;28;20060;-47
2021/11/03 01:43:41;;;;;;;37.28;10.70;;;;;;;;;;5074531;28;20476;-45
2021/11/03 01:46:34;;;;;;;42.60;10.55;;;;;;;;;;5075313;28;20044;-47
2021/11/03 01:49:04;;;;;;;46.35;11.18;;;;;;;;;;5087423;28;20627;-49
2021/11/03 01:51:36;;;;;;;43.30;11.38;;;;;;;;;;5072604;28;20380;-49
2021/11/03 01:54:05;;;;;;;40.42;10.02;;;;;;;;;;5083689;28;20032;-46
2021/11/03 01:56:32;;;;;;;41.50;10.50;;;;;;;;;;5073406;28;20104;-48
2021/11/03 01:59:20;;;;;;;42.30;9.75;;;;;;;;;;5076638;28;20025;-47
2021/11/03 02:01:48;;;;;;;47.63;11.00;;;;;;;;;;5073524;28;20124;-45
2021/11/03 02:04:15;;;;;;;44.25;10.60;;;;;;;;;;5091094;28;20040;-46
2021/11/03 02:06:43;;;;;;;48.38;11.23;;;;;;;;;;5076482;28;20659;-48
2021/11/03 02:09:10;;;;;;;44.03;11.73;;;;;;;;;;5076380;28;20027;-46
2021/11/03 02:11:38;;;;;;;42.90;10.82;;;;;;;;;;5070220;28;20027;-46
2021/11/03 02:14:06;;;;;;;50.95;11.02;;;;;;;;;;5079549;28;20130;-46
2021/11/03 02:16:35;;;;;;;40.30;11.13;;;;;;;;;;5078142;28;20032;-46
2021/11/03 02:19:03;;;;;;;39.88;10.52;;;;;;;;;;5075626;28;20078;-45
2021/11/03 02:21:39;;;;;;;45.30;11.57;;;;;;;;;;5071422;28;20052;-51
2021/11/03 02:24:15;;;;;;;38.00;10.15;;;;;;;;;;5071585;28;20028;-46
2021/11/03 02:26:43;;;;;;;42.30;10.45;;;;;;;;;;5069933;28;20036;-43
2021/11/03 02:29:12;;;;;;;37.38;10.93;;;;;;;;;;5071022;28;20012;-44
2021/11/03 02:31:43;;;;;;;28.75;10.15;;;;;;;;;;5070016;28;20025;-47
2021/11/03 02:34:17;;;;;;;38.78;9.52;;;;;;;;;;5070385;28;20059;-47
2021/11/03 02:36:53;;;;;;;38.78;10.07;;;;;;;;;;5071103;28;20036;-45
2021/11/03 02:39:32;;;;;;;33.97;9.43;;;;;;;;;;5053057;28;20024;-54
2021/11/03 02:42:05;;;;;;;33.20;9.18;;;;;;;;;;5071545;28;20395;-53
2021/11/03 02:44:32;;;;;;;40.40;9.18;;;;;;;;;;5068676;28;20060;-48
2021/11/03 02:46:59;;;;;;;32.55;8.93;;;;;;;;;;5055095;28;20096;-49
2021/11/03 02:49:26;;;;;;;27.38;7.75;;;;;;;;;;5077968;28;20031;-50
2021/11/03 02:51:53;;;;;;;43.60;9.00;;;;;;;;;;5070677;28;20882;-49
2021/11/03 02:54:21;;;;;;;61.30;9.43;;;;;;;;;;5080838;28;20032;-52
2021/11/03 02:56:52;;;;;;;47.05;9.15;;;;;;;;;;5066233;28;20024;-50
2021/11/03 02:59:20;;;;;;;47.95;9.25;;;;;;;;;;5085123;28;20401;-51
2021/11/03 03:01:48;;;;;;;38.40;8.57;;;;;;;;;;5072274;28;20028;-52
2021/11/03 03:04:18;;;;;;;40.35;8.82;;;;;;;;;;5072416;28;20027;-48
2021/11/03 03:06:45;;;;;;;30.38;7.85;;;;;;;;;;5071976;28;20036;-53
2021/11/03 03:09:12;;;;;;;54.75;8.48;;;;;;;;;;5071726;28;20613;-54
2021/11/03 03:11:44;;;;;;;48.67;8.35;;;;;;;;;;5069928;28;20537;-54
2021/11/03 03:14:11;;;;;;;37.47;7.72;;;;;;;;;;5073939;28;20032;-51
2021/11/03 03:16:39;;;;;;;32.25;7.45;;;;;;;;;;5070880;28;20017;-51
2021/11/03 03:19:06;;;;;;;41.47;8.35;;;;;;;;;;5071454;28;20468;-50
2021/11/03 03:21:34;;;;;;;29.95;7.53;;;;;;;;;;5070457;28;20056;-47
2021/11/03 03:24:02;;;;;;;30.98;8.18;;;;;;;;;;5071159;28;20054;-55
2021/11/03 03:26:30;;;;;;;34.58;7.22;;;;;;;;;;5073165;28;20032;-55
2021/11/03 03:28:57;;;;;;;30.27;7.55;;;;;;;;;;5069892;28;20052;-52
2021/11/03 03:31:24;;;;;;;35.00;7.45;;;;;;;;;;5069119;28;20032;-49
2021/11/03 03:33:53;;;;;;;33.88;7.38;;;;;;;;;;5070464;28;20407;-53
2021/11/03 03:36:20;;;;;;;32.88;7.50;;;;;;;;;;5071091;28;20032;-53
2021/11/03 03:38:48;;;;;;;25.33;6.65;;;;;;;;;;5071596;28;20051;-55
2021/11/03 03:41:16;;;;;;;33.38;7.03;;;;;;;;;;5071129;28;20098;-53
2021/11/03 03:43:43;;;;;;;36.25;7.50;;;;;;;;;;5071390;28;20095;-55
2021/11/03 03:46:11;;;;;;;30.15;7.38;;;;;;;;;;5071575;28;20059;-55
2021/11/03 03:48:38;;;;;;;31.70;6.53;;;;;;;;;;5053034;28;20380;-54
2021/11/03 03:51:05;;;;;;;22.42;6.40;;;;;;;;;;5071664;28;20049;-53
2021/11/03 03:53:32;;;;;;;23.80;6.53;;;;;;;;;;5070912;28;20024;-49
2021/11/03 03:55:59;;;;;;;20.58;6.72;;;;;;;;;;5082521;28;20027;-52
2021/11/03 03:58:27;;;;;;;18.45;6.35;;;;;;;;;;5073867;28;20039;-47
2021/11/03 04:00:54;;;;;;;41.30;6.82;;;;;;;;;;5071631;28;20501;-49
2021/11/03 04:03:21;;;;;;;26.88;5.90;;;;;;;;;;5070823;28;20020;-53
2021/11/03 04:05:48;;;;;;;22.17;5.90;;;;;;;;;;5070920;28;20112;-49
2021/11/03 04:08:15;;;;;;;26.77;6.10;;;;;;;;;;5070524;28;20070;-50
2021/11/03 04:10:43;;;;;;;18.52;5.40;;;;;;;;;;5071065;28;20020;-51
2021/11/03 04:13:11;;;;;;;17.85;5.95;;;;;;;;;;5070304;28;20537;-51
2021/11/03 04:15:38;;;;;;;19.63;5.80;;;;;;;;;;5070855;28;20476;-50
2021/11/03 04:18:05;;;;;;;24.80;6.05;;;;;;;;;;5070645;28;20020;-52
2021/11/03 04:20:32;;;;;;;15.68;5.25;;;;;;;;;;5052788;28;20631;-52
2021/11/03 04:22:59;;;;;;;16.25;4.90;;;;;;;;;;5070413;28;20021;-50
2021/11/03 04:25:26;;;;;;;18.00;5.75;;;;;;;;;;5070819;28;20044;-50
2021/11/03 04:27:53;;;;;;;16.67;5.45;;;;;;;;;;5070814;28;20082;-47
2021/11/03 04:30:22;;;;;;;18.38;5.75;;;;;;;;;;5070493;28;20384;-53
2021/11/03 04:32:49;;;;;;;15.98;5.20;;;;;;;;;;5072846;28;20019;-50
2021/11/03 04:35:16;;;;;;;19.50;5.30;;;;;;;;;;5074098;28;20020;-47
2021/11/03 04:37:43;;;;;;;15.43;4.80;;;;;;;;;;5074454;28;20024;-54
2021/11/03 04:40:13;;;;;;;19.15;5.07;;;;;;;;;;5073840;28;20024;-50
2021/11/03 04:42:39;;;;;;;12.68;4.40;;;;;;;;;;5074461;28;20021;-48
2021/11/03 04:45:07;;;;;;;13.98;4.70;;;;;;;;;;5073724;28;20044;-49
2021/11/03 04:47:34;;;;;;;17.08;4.80;;;;;;;;;;5074503;28;20476;-48
2021/11/03 04:50:02;;;;;;;16.13;4.97;;;;;;;;;;5073924;28;20028;-47
2021/11/03 04:52:29;;;;;;;13.10;4.57;;;;;;;;;;5074458;28;20012;-50
2021/11/03 04:54:56;;;;;;;17.30;4.80;;;;;;;;;;5075488;28;20046;-51
2021/11/03 04:57:23;;;;;;;17.08;4.35;;;;;;;;;;5086094;28;20017;-46
2021/11/03 04:59:50;;;;;;;13.70;4.80;;;;;;;;;;5073585;28;20040;-51
2021/11/03 05:02:17;;;;;;;11.18;4.25;;;;;;;;;;5074582;28;20017;-48
2021/11/03 05:04:44;;;;;;;12.27;4.32;;;;;;;;;;5055758;28;20032;-50
2021/11/03 05:07:12;;;;;;;13.65;4.43;;;;;;;;;;5073943;28;20443;-50
2021/11/03 05:09:39;;;;;;;14.52;3.95;;;;;;;;;;5073858;28;20087;-52
2021/11/03 05:12:06;;;;;;;10.95;4.10;;;;;;;;;;5073700;28;20427;-47
2021/11/03 05:14:33;;;;;;;16.48;4.88;;;;;;;;;;5074030;28;20167;-50
2021/11/03 05:17:00;;;;;;;14.73;4.20;;;;;;;;;;5073563;28;20481;-51
2021/11/03 05:19:30;;;;;;;9.80;3.75;;;;;;;;;;5073944;28;20020;-46
2021/11/03 05:21:57;;;;;;;14.90;4.65;;;;;;;;;;5073398;28;20048;-55
2021/11/03 05:24:24;;;;;;;11.73;4.00;;;;;;;;;;5073962;28;20021;-50
2021/11/03 05:26:52;;;;;;;9.82;3.85;;;;;;;;;;5073496;28;20094;-48
2021/11/03 05:29:20;;;;;;;11.25;3.90;;;;;;;;;;5073580;28;20025;-51
2021/11/03 05:31:47;;;;;;;13.63;3.95;;;;;;;;;;5073143;28;20028;-52
2021/11/03 05:34:14;;;;;;;11.93;4.15;;;;;;;;;;5073660;28;20016;-50
2021/11/03 05:36:41;;;;;;;10.52;3.90;;;;;;;;;;5087132;28;20032;-47
2021/11/03 05:39:11;;;;;;;9.10;3.75;;;;;;;;;;5093170;28;20024;-51
2021/11/03 05:41:38;;;;;;;14.27;4.05;;;;;;;;;;5093729;28;20093;-48
2021/11/03 05:44:06;;;;;;;9.40;3.70;;;;;;;;;;5092704;28;20024;-53
2021/11/03 05:46:35;;;;;;;10.40;3.50;;;;;;;;;;5093281;28;20081;-52
2021/11/03 05:49:05;;;;;;;10.55;3.92;;;;;;;;;;5093512;28;20021;-53
2021/11/03 05:51:33;;;;;;;10.73;3.42;;;;;;;;;;5093412;28;20103;-48
2021/11/03 05:54:00;;;;;;;9.85;3.78;;;;;;;;;;5093468;28;20020;-49
2021/11/03 05:56:27;;;;;;;8.38;3.40;;;;;;;;;;5093708;28;20095;-48
2021/11/03 05:58:54;;;;;;;10.00;3.53;;;;;;;;;;5093171;28;20081;-53
2021/11/03 06:01:21;;;;;;;7.90;3.50;;;;;;;;;;5093474;28;20020;-51
2021/11/03 06:03:51;;;;;;;9.65;3.47;;;;;;;;;;5093002;28;20380;-49
2021/11/03 06:06:18;;;;;;;10.65;3.88;;;;;;;;;;5093357;28;20503;-49
2021/11/03 06:08:45;;;;;;;12.48;3.70;;;;;;;;;;5092930;28;20425;-48
2021/11/03 06:11:14;;;;;;;10.32;3.38;;;;;;;;;;5074706;28;20028;-49
2021/11/03 06:13:42;;;;;;;8.77;3.50;;;;;;;;;;5092738;28;20028;-51
2021/11/03 06:16:10;;;;;;;8.35;3.20;;;;;;;;;;5093256;28;20020;-48
2021/11/03 06:18:37;;;;;;;10.18;3.38;;;;;;;;;;5092706;28;20024;-55
2021/11/03 06:21:04;;;;;;;6.68;2.83;;;;;;;;;;5093021;28;20048;-47
2021/11/03 06:23:31;;;;;;;8.18;3.08;;;;;;;;;;5092644;28;20514;-49
2021/11/03 06:25:58;;;;;;;8.02;3.30;;;;;;;;;;5092891;28;20036;-48
2021/11/03 06:28:25;;;;;;;12.05;3.33;;;;;;;;;;5092453;28;20073;-48
2021/11/03 06:30:53;;;;;;;7.60;2.92;;;;;;;;;;5093039;28;20060;-48
2021/11/03 06:33:20;;;;;;;7.72;3.03;;;;;;;;;;5092259;28;20028;-48
2021/11/03 06:35:47;;;;;;;10.43;3.75;;;;;;;;;;5092641;28;20016;-49
2021/11/03 06:38:15;;;;;;;12.63;3.35;;;;;;;;;;5092730;28;20468;-51
2021/11/03 06:40:42;;;;;;;9.60;2.72;;;;;;;;;;5092218;28;20537;-53
2021/11/03 06:43:09;;;;;;;9.27;2.72;;;;;;;;;;5092752;28;20024;-47
2021/11/03 06:45:37;;;;;;;7.07;2.92;;;;;;;;;;5092294;28;20039;-50
2021/11/03 06:48:04;;;;;;;7.30;3.03;;;;;;;;;;5092677;28;20050;-48
2021/11/03 06:50:36;;;;;;;8.98;2.95;;;;;;;;;;5091789;28;20118;-56
2021/11/03 06:53:04;;;;;;;7.00;2.87;;;;;;;;;;5092648;28;20020;-48
2021/11/03 06:55:31;;;;;;;6.00;2.65;;;;;;;;;;5091552;28;20032;-49
2021/11/03 06:57:58;;;;;;;7.80;3.17;;;;;;;;;;5092508;28;20486;-53
2021/11/03 07:00:30;;;;;;;7.53;2.88;;;;;;;;;;5091980;28;20284;-54
2021/11/03 07:02:58;;;;;;;6.28;2.30;;;;;;;;;;5092547;28;20020;-49
2021/11/03 07:05:26;;;;;;;6.63;2.20;;;;;;;;;;5091562;28;20040;-50
2021/11/03 07:07:53;;;;;;;8.50;2.67;;;;;;;;;;5092346;28;20024;-51
2021/11/03 07:10:21;;;;;;;7.00;2.45;;;;;;;;;;5091565;28;20456;-50
2021/11/03 07:12:48;;;;;;;7.60;2.45;;;;;;;;;;5092017;28;20028;-48
2021/11/03 07:15:16;;;;;;;6.60;2.35;;;;;;;;;;5091585;28;20047;-49
2021/11/03 07:17:44;;;;;;;6.55;2.58;;;;;;;;;;5092250;28;20507;-48
2021/11/03 07:20:11;;;;;;;6.35;2.40;;;;;;;;;;5091547;28;20410;-48
2021/11/03 07:22:39;;;;;;;6.97;2.15;;;;;;;;;;5091986;28;20020;-49
2021/11/03 07:25:07;;;;;;;4.68;2.10;;;;;;;;;;5092272;28;20537;-47
2021/11/03 07:27:34;;;;;;;5.30;2.35;;;;;;;;;;5091499;28;20032;-54
2021/11/03 07:30:01;;;;;;;5.78;2.25;;;;;;;;;;5091847;28;20054;-51
2021/11/03 07:32:28;;;;;;;6.82;1.90;;;;;;;;;;5091158;28;20039;-52
2021/11/03 07:34:55;;;;;;;5.10;1.98;;;;;;;;;;5092012;28;20031;-51
2021/11/03 07:37:22;;;;;;;5.22;1.95;;;;;;;;;;5091314;28;20020;-53
2021/11/03 07:39:49;;;;;;;4.03;2.03;;;;;;;;;;5092059;28;20026;-47
2021/11/03 07:42:16;;;;;;;4.97;2.00;;;;;;;;;;5091203;28;20020;-51
2021/11/03 07:44:43;;;;;;;4.03;2.00;;;;;;;;;;5091928;28;20051;-53
2021/11/03 07:47:10;;;;;;;5.53;1.73;;;;;;;;;;5091161;28;20535;-51
2021/11/03 07:49:37;;;;;;;4.45;2.15;;;;;;;;;;5091940;28;20065;-46
2021/11/03 07:52:05;;;;;;;5.43;1.90;;;;;;;;;;5091368;28;20024;-49
2021/11/03 07:54:31;;;;;;;5.20;2.30;;;;;;;;;;5092037;28;20052;-50
2021/11/03 07:56:59;;;;;;;3.03;1.38;;;;;;;;;;5091210;28;20441;-47
2021/11/03 07:59:26;;;;;;;5.20;1.90;;;;;;;;;;5091549;28;20023;-47
2021/11/03 08:01:54;;;;;;;3.95;1.83;;;;;;;;;;5091315;28;20032;-49
2021/11/03 08:04:21;;;;;;;5.40;1.65;;;;;;;;;;5091729;28;20024;-53
2021/11/03 08:06:48;;;;;;;3.65;1.92;;;;;;;;;;5091677;28;20028;-55
2021/11/03 08:09:16;;;;;;;4.35;1.83;;;;;;;;;;5095145;28;20044;-52
2021/11/03 08:11:51;;;;;;;4.15;1.65;;;;;;;;;;5095752;28;20059;-53
2021/11/03 08:14:20;;;;;;;2.47;1.40;;;;;;;;;;5095034;28;20099;-56
2021/11/03 08:16:52;;;;;;;3.65;1.70;;;;;;;;;;5095619;28;20028;-52
2021/11/03 08:19:19;;;;;;;4.47;1.55;;;;;;;;;;5095109;28;20024;-52
2021/11/03 08:21:46;;;;;;;4.57;1.50;;;;;;;;;;5095579;28;20036;-51
2021/11/03 08:24:13;;;;;;;5.22;1.75;;;;;;;;;;5095152;28;20017;-46
2021/11/03 08:26:40;;;;;;;4.18;1.75;;;;;;;;;;5095492;28;20392;-55
2021/11/03 08:29:07;;;;;;;3.03;1.60;;;;;;;;;;5094738;28;20024;-50
2021/11/03 08:31:35;;;;;;;3.08;1.52;;;;;;;;;;5095214;28;20904;-52
2021/11/03 08:34:02;;;;;;;3.05;1.70;;;;;;;;;;5094921;28;20682;-52
2021/11/03 08:36:29;;;;;;;4.30;1.70;;;;;;;;;;5095472;28;20028;-48
2021/11/03 08:38:58;;;;;;;2.63;1.33;;;;;;;;;;5094743;28;20017;-50
2021/11/03 08:41:27;;;;;;;3.95;1.90;;;;;;;;;;5094807;28;20523;-52
2021/11/03 08:43:54;;;;;;;3.60;1.40;;;;;;;;;;5094517;28;20047;-55
2021/11/03 08:46:22;;;;;;;3.20;1.50;;;;;;;;;;5095132;28;20024;-47
2021/11/03 08:48:57;;;;;;;4.43;1.60;;;;;;;;;;5094537;28;20403;-52
2021/11/03 08:51:25;;;;;;;2.50;1.42;;;;;;;;;;5095062;28;20024;-48
2021/11/03 08:53:53;;;;;;;4.55;1.63;;;;;;;;;;5094551;28;20027;-49
2021/11/03 08:56:20;;;;;;;4.40;1.65;;;;;;;;;;5094779;28;20028;-52
2021/11/03 08:58:47;;;;;;;4.55;1.60;;;;;;;;;;5094647;28;20590;-48
2021/11/03 09:01:14;;;;;;;2.05;1.08;;;;;;;;;;5094446;28;20435;-49
2021/11/03 09:03:41;;;;;;;4.25;1.40;;;;;;;;;;5094483;28;20076;-51
2021/11/03 09:06:09;;;;;;;2.78;1.45;;;;;;;;;;5094156;28;20027;-49
2021/11/03 09:08:40;;;;;;;4.18;1.60;;;;;;;;;;5095106;28;20020;-48
2021/11/03 09:11:08;;;;;;;2.92;1.10;;;;;;;;;;5093965;28;20043;-47
2021/11/03 09:13:35;;;;;;;3.17;1.40;;;;;;;;;;5094099;28;20050;-49
2021/11/03 09:16:03;;;;;;;5.78;1.40;;;;;;;;;;5094293;28;20495;-49
2021/11/03 09:18:30;;;;;;;3.47;1.30;;;;;;;;;;5094106;28;20039;-50
2021/11/03 09:20:57;;;;;;;4.00;1.33;;;;;;;;;;5093515;28;20067;-53
2021/11/03 09:23:25;;;;;;;3.00;1.40;;;;;;;;;;5093937;28;20488;-48
2021/11/03 09:25:53;;;;;;;4.07;1.40;;;;;;;;;;5093471;28;20472;-49
2021/11/03 09:28:21;;;;;;;2.30;1.38;;;;;;;;;;5094304;28;20020;-54
2021/11/03 09:30:48;;;;;;;3.25;1.05;;;;;;;;;;5093929;28;20146;-52
2021/11/03 09:33:15;;;;;;;4.40;1.40;;;;;;;;;;5093859;28;20012;-53
2021/11/03 09:35:47;;;;;;;6.05;1.40;;;;;;;;;;5093583;28;20020;-54
2021/11/03 09:38:16;;;;;;;2.47;1.17;;;;;;;;;;5093970;28;20472;-55
2021/11/03 09:40:46;;;;;;;4.32;1.33;;;;;;;;;;5093667;28;20024;-53
2021/11/03 09:43:26;;;;;;;2.08;1.08;;;;;;;;;;5092991;28;20036;-53
2021/11/03 09:45:53;;;;;;;2.25;1.00;;;;;;;;;;5093628;28;20036;-48
2021/11/03 09:48:23;;;;;;;2.30;1.27;;;;;;;;;;5093374;28;20520;-53
2021/11/03 09:50:53;;;;;;;4.13;1.30;;;;;;;;;;5093897;28;20051;-52
2021/11/03 09:53:29;;;;;;;4.57;1.70;;;;;;;;;;5092575;28;20450;-52
2021/11/03 09:55:56;;;;;;;2.55;1.20;;;;;;;;;;5093499;28;20554;-52
2021/11/03 09:58:34;;;;;;;4.85;1.50;;;;;;;;;;5093019;28;20476;-51
2021/11/03 10:01:21;;;;;;;4.82;1.33;;;;;;;;;;5093519;28;20365;-53
2021/11/03 10:04:01;;;;;;;3.45;1.30;;;;;;;;;;5092689;28;20099;-51
2021/11/03 10:06:46;;;;;;;3.97;1.30;;;;;;;;;;5093564;28;20051;-53
2021/11/03 10:09:13;;;;;;;2.53;1.15;;;;;;;;;;5093033;28;20028;-51
2021/11/03 10:11:42;;;;;;;2.30;1.13;;;;;;;;;;5093453;28;20475;-55
2021/11/03 10:14:10;;;;;;;3.45;1.10;;;;;;;;;;5092629;28;20030;-54
2021/11/03 10:16:57;;;;;;;2.97;1.17;;;;;;;;;;5093464;28;20024;-50
2021/11/03 10:19:24;;;;;;;3.20;1.10;;;;;;;;;;5092699;28;20430;-52
2021/11/03 10:21:52;;;;;;;1.65;0.90;;;;;;;;;;5093056;28;20048;-55
2021/11/03 10:24:22;;;;;;;4.03;1.10;;;;;;;;;;5092649;28;20016;-55
2021/11/03 10:27:11;;;;;;;2.42;1.02;;;;;;;;;;5093030;28;20064;-55
2021/11/03 10:29:48;;;;;;;3.90;1.40;;;;;;;;;;5092095;28;20112;-55
2021/11/03 10:32:18;;;;;;;3.05;1.27;;;;;;;;;;5091794;28;20019;-55
2021/11/03 10:34:48;;;;;;;2.38;1.08;;;;;;;;;;5066989;28;20027;-53
2021/11/03 10:37:18;;;;;;;1.65;0.95;;;;;;;;;;5072183;28;20017;-52
2021/11/03 10:39:51;;;;;;;1.40;0.93;;;;;;;;;;5071532;28;20028;-52
2021/11/03 10:42:33;;;;;;;2.92;1.10;;;;;;;;;;5072627;28;20017;-52
2021/11/03 10:45:12;;;;;;;5.93;2.33;;;;;;;;;;5071774;28;20120;-50
2021/11/03 10:47:40;;;;;;;16.77;5.00;;;;;;;;;;5072251;28;20031;-49
2021/11/03 10:50:31;;;;;;;12.20;4.88;;;;;;;;;;5071421;28;20025;-49
2021/11/03 10:53:13;;;;;;;17.02;5.00;;;;;;;;;;5061200;28;20041;-50
2021/11/03 10:55:45;;;;;;;16.65;5.85;;;;;;;;;;5071697;28;20020;-52
2021/11/03 10:58:12;;;;;;;19.63;5.65;;;;;;;;;;5072337;28;20024;-49
2021/11/03 11:00:40;;;;;;;15.50;5.00;;;;;;;;;;5071825;28;20411;-50
2021/11/03 11:03:16;;;;;;;13.85;4.95;;;;;;;;;;5072176;28;20035;-52
2021/11/03 11:05:48;;;;;;;12.68;4.60;;;;;;;;;;5071418;28;20119;-54
2021/11/03 11:08:20;;;;;;;13.02;4.75;;;;;;;;;;5071570;28;20029;-50
2021/11/03 11:10:49;;;;;;;12.57;4.68;;;;;;;;;;5074784;28;20024;-52
2021/11/03 11:13:27;;;;;;;84.10;7.63;;;;;;;;;;5082747;28;20020;-53
2021/11/03 11:16:00;;;;;;;36.60;5.40;;;;;;;;;;5091315;28;20031;-52
2021/11/03 11:18:44;;;;;;;18.80;4.90;;;;;;;;;;5075393;28;20541;-47
2021/11/03 11:21:17;;;;;;;38.30;7.32;;;;;;;;;;5070744;28;20056;-45
2021/11/03 11:23:52;;;;;;;27.33;5.97;;;;;;;;;;5080662;28;20028;-46
2021/11/03 11:26:25;;;;;;;34.80;7.22;;;;;;;;;;5091249;28;20047;-54
2021/11/03 11:28:52;;;;;;;35.75;6.57;;;;;;;;;;5083397;28;20020;-45
2021/11/03 11:31:38;;;;;;;33.88;7.10;;;;;;;;;;5070966;28;20020;-48
2021/11/03 11:34:14;;;;;;;59.85;7.90;;;;;;;;;;5070759;28;20040;-47
2021/11/03 11:36:46;;;;;;;34.85;6.53;;;;;;;;;;5069838;28;20028;-53
2021/11/03 11:39:13;;;;;;;40.55;7.22;;;;;;;;;;5070437;28;20498;-49
2021/11/03 11:41:51;;;;;;;45.08;7.18;;;;;;;;;;5071738;28;20040;-47
2021/11/03 11:44:20;;;;;;;44.17;7.20;;;;;;;;;;5070817;28;20024;-51
2021/11/03 11:46:48;;;;;;;30.88;7.03;;;;;;;;;;5069831;28;20029;-49
2021/11/03 11:49:26;;;;;;;54.28;7.72;;;;;;;;;;5070752;28;20024;-47
2021/11/03 11:51:58;;;;;;;38.40;6.20;;;;;;;;;;5069663;28;20027;-47
2021/11/03 11:54:30;;;;;;;16.92;2.80;;;;;;;;;;5070786;28;20044;-46
2021/11/03 11:57:17;;;;;;;11.38;2.08;;;;;;;;;;5070155;28;20047;-46
2021/11/03 12:00:13;;;;;;;24.50;3.00;;;;;;;;;;5055205;28;20044;-49
2021/11/03 12:02:52;;;;;;;23.55;4.25;;;;;;;;;;5069522;28;20394;-46
2021/11/03 12:05:22;;;;;;;40.33;5.18;;;;;;;;;;5070479;28;20040;-47
2021/11/03 12:08:08;;;;;;;36.20;4.80;;;;;;;;;;5070282;28;20024;-55
2021/11/03 12:10:36;;;;;;;37.92;4.32;;;;;;;;;;5070685;28;20525;-51
2021/11/03 12:13:06;;;;;;;16.42;2.90;;;;;;;;;;5069910;28;20032;-55
2021/11/03 12:15:51;;;;;;;17.38;2.35;;;;;;;;;;5070605;28;20029;-54
2021/11/03 12:18:20;;;;;;;4.35;1.63;;;;;;;;;;5070334;28;20502;-49
2021/11/03 12:21:07;;;;;;;9.25;1.70;;;;;;;;;;5070305;28;20488;-58
2021/11/03 12:23:45;;;;;;;12.90;3.10;;;;;;;;;;5021744;28;20035;-48
2021/11/03 12:26:32;;;;;;;12.63;3.03;;;;;;;;;;5090545;28;20055;-51
2021/11/03 12:29:18;;;;;;;9.60;2.28;;;;;;;;;;5039603;28;20043;-51
2021/11/03 12:31:54;;;;;;;16.75;2.40;;;;;;;;;;5090623;28;20085;-42
2021/11/03 12:34:29;;;;;;;69.60;6.05;;;;;;;;;;5072658;28;20038;-47
2021/11/03 12:36:58;;;;;;;132.27;9.52;;;;;;;;;;5070552;28;20050;-57
2021/11/03 12:39:31;;;;;;;29.77;2.63;;;;;;;;;;5062299;28;20400;-57
2021/11/03 12:42:13;;;;;;;8.27;2.03;;;;;;;;;;5080303;28;20020;-55
2021/11/03 12:44:45;;;;;;;9.57;1.55;;;;;;;;;;5069245;28;20112;-58
2021/11/03 12:47:27;;;;;;;6.25;1.50;;;;;;;;;;5070356;28;20032;-57
2021/11/03 12:50:14;;;;;;;6.75;1.27;;;;;;;;;;5070097;28;20029;-55
2021/11/03 12:52:56;;;;;;;10.15;1.23;;;;;;;;;;5070404;28;20468;-58
2021/11/03 12:55:23;;;;;;;;;;;;;;;;;;5073421;28;20028;-57
2021/11/03 12:57:50;;;;;;;7.18;1.27;;;;;;;;;;5074009;28;19904;-60
2021/11/03 13:00:18;;;;;;;5.07;1.10;;;;;;;;;;5073539;28;20099;-63
2021/11/03 13:02:51;;;;;;;8.15;1.17;;;;;;;;;;5073471;28;20028;-58
2021/11/03 13:05:23;;;;;;;3.47;1.02;;;;;;;;;;5073399;28;20024;-45
2021/11/03 13:07:51;;;;;;;4.88;1.30;;;;;;;;;;5072341;28;20389;-45
2021/11/03 13:10:20;;;;;;;3.42;1.20;;;;;;;;;;5072816;28;20021;-44
2021/11/03 13:13:01;;;;;;;8.50;1.55;;;;;;;;;;5075945;28;20039;-45
2021/11/03 13:15:31;;;;;;;6.72;1.10;;;;;;;;;;5073042;28;20025;-46
2021/11/03 13:18:08;;;;;;;10.18;1.55;;;;;;;;;;5073233;28;20028;-50
2021/11/03 13:20:37;;;;;;;7.25;1.15;;;;;;;;;;5072980;28;20119;-50
2021/11/03 13:23:04;;;;;;;11.80;1.27;;;;;;;;;;5073903;28;20077;-51
2021/11/03 13:25:44;;;;;;;11.48;1.40;;;;;;;;;;5073147;28;20021;-49
2021/11/03 13:28:28;;;;;;;21.10;3.20;;;;;;;;;;5072692;28;20480;-47
2021/11/03 13:31:00;;;;;;;22.85;2.25;;;;;;;;;;5087469;28;20024;-50
2021/11/03 13:33:31;;;;;;;17.73;1.60;;;;;;;;;;5080906;28;20101;-45
2021/11/03 13:35:59;;;;;;;54.28;4.43;;;;;;;;;;5057238;28;20499;-50
2021/11/03 13:38:28;;;;;;;195.10;15.25;;;;;;;;;;5072286;28;20115;-50
2021/11/03 13:40:57;;;;;;;285.90;24.30;;;;;;;;;;5072099;28;20484;-54
2021/11/03 13:43:24;;;;;;;137.90;12.13;;;;;;;;;;5072702;28;20029;-59
2021/11/03 13:45:53;;;;;;;88.43;9.48;;;;;;;;;;5074296;28;20047;-59
2021/11/03 13:48:22;;;;;;;78.72;7.70;;;;;;;;;;5072603;28;20020;-60
2021/11/03 13:50:50;;;;;;;31.77;3.78;;;;;;;;;;5072101;28;20032;-56
2021/11/03 13:53:20;;;;;;;44.08;4.38;;;;;;;;;;5072515;28;20017;-57
2021/11/03 13:55:49;;;;;;;44.72;4.38;;;;;;;;;;5083443;28;20024;-58
2021/11/03 13:58:26;;;;;;;23.83;3.05;;;;;;;;;;5092938;28;20028;-53
2021/11/03 14:01:16;;;;;;;20.23;3.10;;;;;;;;;;5086019;28;20064;-61
2021/11/03 14:03:58;;;;;;;20.85;2.75;;;;;;;;;;5060492;28;20503;-57
2021/11/03 14:06:30;;;;;;;25.35;2.53;;;;;;;;;;5071804;28;20056;-57
2021/11/03 14:09:06;;;;;;;22.25;2.47;;;;;;;;;;5055040;28;20032;-56
2021/11/03 14:11:34;;;;;;;29.23;2.67;;;;;;;;;;5071261;28;20039;-55
2021/11/03 14:14:01;;;;;;;169.88;10.73;;;;;;;;;;5071863;28;20028;-56
2021/11/03 14:16:30;;;;;;;251.52;16.15;;;;;;;;;;5054483;28;20040;-57
2021/11/03 14:18:58;;;;;;;200.07;14.27;;;;;;;;;;5071811;28;20031;-53
2021/11/03 14:21:25;;;;;;;556.95;46.33;;;;;;;;;;5071997;28;20051;-55
2021/11/03 14:23:53;;;;;;;183.27;16.50;;;;;;;;;;5053574;28;20479;-59
2021/11/03 14:26:21;;;;;;;165.90;13.88;;;;;;;;;;5088482;28;20093;-59
2021/11/03 14:28:48;;;;;;;132.70;14.30;;;;;;;;;;5053001;28;20062;-56
2021/11/03 14:31:23;;;;;;;135.38;11.63;;;;;;;;;;5072141;28;20472;-54
2021/11/03 14:33:50;;;;;;;67.78;7.57;;;;;;;;;;5070733;28;20055;-55
2021/11/03 14:36:19;;;;;;;25.45;3.03;;;;;;;;;;5072240;28;20466;-58
2021/11/03 14:38:47;;;;;;;29.30;3.10;;;;;;;;;;5071468;28;20020;-56
2021/11/03 14:41:19;;;;;;;17.35;2.22;;;;;;;;;;5071773;28;20100;-55
2021/11/03 14:43:46;;;;;;;35.78;4.53;;;;;;;;;;5070914;28;20112;-57
2021/11/03 14:46:27;;;;;;;92.43;9.73;;;;;;;;;;5071675;28;20054;-46
2021/11/03 14:48:54;;;;;;;76.18;8.07;;;;;;;;;;5071582;28;20504;-58